Eider — V2KA — position and weather

sailwx.info

Track history (hours):
 
Tides and Currents Weather Stations Pressure Air Temp Water Temp Dewpoint Dewpoint Depression Visibility Wind Speed Wind Dir Waves Ship Positions

Eider

Last reported at 2018-Jan-18 22:07 UTC. Time now 2018-Jan-22 00:40 UTC.
Position N 36°00' W 005°14'.

Length 88 m; draft 5.5 m.

Type: Cargo ship. MMSI: 304469000.

Date/timePositionNaut miles runAvg speedWind from/ knotsBaromVisibWave heightAir tempDewpointWater temp
2018-Jan-18 22:07N 36°00' W 005°14'1 6.3
2018-Jan-18 22:00N 36°00' W 005°15'4 7.3
2018-Jan-18 21:30N 35°57' W 005°16'3 5.8
2018-Jan-18 21:01N 35°54' W 005°19'1 1.3
2018-Jan-18 20:28N 35°54' W 005°18'0 0.0
2018-Jan-18 20:00N 35°54' W 005°18'0 0.0
2018-Jan-18 19:29N 35°54' W 005°18'0 0.0
2018-Jan-18 19:00N 35°54' W 005°18'0 0.0
2018-Jan-18 18:30N 35°54' W 005°18'0 0.3
2018-Jan-18 18:01N 35°54' W 005°19'1 2.2
2018-Jan-18 17:30N 35°55' W 005°19'4 7.3
2018-Jan-18 16:59N 35°58' W 005°22'4 7.8
2018-Jan-18 16:30N 35°57' W 005°26'4 7.7
2018-Jan-18 16:00N 35°57' W 005°31'4 7.4
2018-Jan-18 15:28N 35°55' W 005°36'3 7.0
2018-Jan-18 15:00N 35°55' W 005°40'  
2018-Jan-12 05:52N 50°28' W 000°22'3 7.4
2018-Jan-12 05:30N 50°29' W 000°18'4 7.3
2018-Jan-12 05:00N 50°30' W 000°13'4 7.5
2018-Jan-12 04:30N 50°31' W 000°07'4 7.7
2018-Jan-12 04:00N 50°32' W 000°01'4 7.9
2018-Jan-12 03:30N 50°33' E 000°05'4 8.3
2018-Jan-12 03:00N 50°34' E 000°11'4 8.6
2018-Jan-12 02:30N 50°35' E 000°17'5 9.1
2018-Jan-12 01:59N 50°37' E 000°24'5 9.5
2018-Jan-12 01:30N 50°38' E 000°31'5 9.6
2018-Jan-12 01:00N 50°40' E 000°38'5 9.7
2018-Jan-12 00:30N 50°43' E 000°44'5 9.7
2018-Jan-12 00:00N 50°46' E 000°50'14 9.3
2018-Jan-11 22:29N 50°54' E 001°08'4 8.6
2018-Jan-11 22:00N 50°57' E 001°13'4 8.1
2018-Jan-11 21:30N 50°60' E 001°18'4 7.6
2018-Jan-11 21:00N 51°02' E 001°23'4 7.4
2018-Jan-11 20:30N 51°05' E 001°27'4 7.4
2018-Jan-11 20:00N 51°07' E 001°32'4 7.5
2018-Jan-11 19:30N 51°09' E 001°36'4 7.7
2018-Jan-11 19:00N 51°12' E 001°41'4 7.9
2018-Jan-11 18:31N 51°14' E 001°46'4 8.8
2018-Jan-11 18:01N 51°19' E 001°48'5 9.4
2018-Jan-11 17:30N 51°23' E 001°51'5 9.9
2018-Jan-11 17:00N 51°27' E 001°55'5 9.9
2018-Jan-11 16:30N 51°31' E 001°60'510.4
2018-Jan-11 16:00N 51°35' E 002°06'  
2018-Jan-09 10:01N 57°39' E 008°23'0 7.1
2018-Jan-09 10:00N 57°39' E 008°23'4 7.2
2018-Jan-09 09:30N 57°42' E 008°26'4 7.4
2018-Jan-09 08:59N 57°46' E 008°30'17 8.2
2018-Jan-09 06:56N 58°00' E 008°45'4 8.6
2018-Jan-09 06:29N 58°03' E 008°50'4 8.6
2018-Jan-09 05:59N 58°07' E 008°54'5 8.9
2018-Jan-09 05:25N 58°11' E 009°00'26 9.1
2018-Jan-09 02:34N 58°30' E 009°33'1 9.1
2018-Jan-09 02:30N 58°30' E 009°34'4 8.8
2018-Jan-09 01:59N 58°34' E 009°39'4 9.1
2018-Jan-09 01:30N 58°38' E 009°40'5 9.3
2018-Jan-09 01:00N 58°43' E 009°42'5 9.4
2018-Jan-09 00:30N 58°47' E 009°43'5 9.3
2018-Jan-09 00:00N 58°52' E 009°45'5 9.0
2018-Jan-08 23:30N 58°56' E 009°47'4 8.4
2018-Jan-08 23:00N 59°00' E 009°46'4 8.5
2018-Jan-08 22:30N 59°03' E 009°40'  
Track history (hours):
 
Tides and Currents Weather Stations Pressure Air Temp Water Temp Dewpoint Dewpoint Depression Visibility Wind Speed Wind Dir Waves Ship Positions

Eider

Last reported at 2018-Jan-18 22:07 UTC. Time now 2018-Jan-22 00:40 UTC.
Position N 36°00' W 005°14'.

Length 88 m; draft 5.5 m.

Type: Cargo ship. MMSI: 304469000.

Date/timePositionNaut miles runAvg speedWind from/ knotsBaromVisibWave heightAir tempDewpointWater temp
2018-Jan-18 22:07N 36°00' W 005°14'1 6.3
2018-Jan-18 22:00N 36°00' W 005°15'4 7.3
2018-Jan-18 21:30N 35°57' W 005°16'3 5.8
2018-Jan-18 21:01N 35°54' W 005°19'1 1.3
2018-Jan-18 20:28N 35°54' W 005°18'0 0.0
2018-Jan-18 20:00N 35°54' W 005°18'0 0.0
2018-Jan-18 19:29N 35°54' W 005°18'0 0.0
2018-Jan-18 19:00N 35°54' W 005°18'0 0.0
2018-Jan-18 18:30N 35°54' W 005°18'0 0.3
2018-Jan-18 18:01N 35°54' W 005°19'1 2.2
2018-Jan-18 17:30N 35°55' W 005°19'4 7.3
2018-Jan-18 16:59N 35°58' W 005°22'4 7.8
2018-Jan-18 16:30N 35°57' W 005°26'4 7.7
2018-Jan-18 16:00N 35°57' W 005°31'4 7.4
2018-Jan-18 15:28N 35°55' W 005°36'3 7.0
2018-Jan-18 15:00N 35°55' W 005°40'  
2018-Jan-12 05:52N 50°28' W 000°22'3 7.4
2018-Jan-12 05:30N 50°29' W 000°18'4 7.3
2018-Jan-12 05:00N 50°30' W 000°13'4 7.5
2018-Jan-12 04:30N 50°31' W 000°07'4 7.7
2018-Jan-12 04:00N 50°32' W 000°01'4 7.9
2018-Jan-12 03:30N 50°33' E 000°05'4 8.3
2018-Jan-12 03:00N 50°34' E 000°11'4 8.6
2018-Jan-12 02:30N 50°35' E 000°17'5 9.1
2018-Jan-12 01:59N 50°37' E 000°24'5 9.5
2018-Jan-12 01:30N 50°38' E 000°31'5 9.6
2018-Jan-12 01:00N 50°40' E 000°38'5 9.7
2018-Jan-12 00:30N 50°43' E 000°44'5 9.7
2018-Jan-12 00:00N 50°46' E 000°50'14 9.3
2018-Jan-11 22:29N 50°54' E 001°08'4 8.6
2018-Jan-11 22:00N 50°57' E 001°13'4 8.1
2018-Jan-11 21:30N 50°60' E 001°18'4 7.6
2018-Jan-11 21:00N 51°02' E 001°23'4 7.4
2018-Jan-11 20:30N 51°05' E 001°27'4 7.4
2018-Jan-11 20:00N 51°07' E 001°32'4 7.5
2018-Jan-11 19:30N 51°09' E 001°36'4 7.7
2018-Jan-11 19:00N 51°12' E 001°41'4 7.9
2018-Jan-11 18:31N 51°14' E 001°46'4 8.8
2018-Jan-11 18:01N 51°19' E 001°48'5 9.4
2018-Jan-11 17:30N 51°23' E 001°51'5 9.9
2018-Jan-11 17:00N 51°27' E 001°55'5 9.9
2018-Jan-11 16:30N 51°31' E 001°60'510.4
2018-Jan-11 16:00N 51°35' E 002°06'  
2018-Jan-09 10:01N 57°39' E 008°23'0 7.1
2018-Jan-09 10:00N 57°39' E 008°23'4 7.2
2018-Jan-09 09:30N 57°42' E 008°26'4 7.4
2018-Jan-09 08:59N 57°46' E 008°30'17 8.2
2018-Jan-09 06:56N 58°00' E 008°45'4 8.6
2018-Jan-09 06:29N 58°03' E 008°50'4 8.6
2018-Jan-09 05:59N 58°07' E 008°54'5 8.9
2018-Jan-09 05:25N 58°11' E 009°00'26 9.1
2018-Jan-09 02:34N 58°30' E 009°33'1 9.1
2018-Jan-09 02:30N 58°30' E 009°34'4 8.8
2018-Jan-09 01:59N 58°34' E 009°39'4 9.1
2018-Jan-09 01:30N 58°38' E 009°40'5 9.3
2018-Jan-09 01:00N 58°43' E 009°42'5 9.4
2018-Jan-09 00:30N 58°47' E 009°43'5 9.3
2018-Jan-09 00:00N 58°52' E 009°45'5 9.0
2018-Jan-08 23:30N 58°56' E 009°47'4 8.4
2018-Jan-08 23:00N 59°00' E 009°46'4 8.5
2018-Jan-08 22:30N 59°03' E 009°40'  

Dump ship's entire track history